sensor_id;sensor_type;location;lat;lon;timestamp;temperature;humidity
25945;SHT31;13742;49.306;8.636;2022-07-06T00:00:20;20.41;50.09
25945;SHT31;13742;49.306;8.636;2022-07-06T00:01:20;20.34;50.37
25945;SHT31;13742;49.306;8.636;2022-07-06T00:02:20;20.34;50.50
25945;SHT31;13742;49.306;8.636;2022-07-06T00:03:20;20.33;50.56
25945;SHT31;13742;49.306;8.636;2022-07-06T00:04:20;20.27;50.88
25945;SHT31;13742;49.306;8.636;2022-07-06T00:05:20;20.20;51.09
25945;SHT31;13742;49.306;8.636;2022-07-06T00:06:20;20.21;51.17
25945;SHT31;13742;49.306;8.636;2022-07-06T00:07:21;20.23;51.13
25945;SHT31;13742;49.306;8.636;2022-07-06T00:08:20;20.28;51.03
25945;SHT31;13742;49.306;8.636;2022-07-06T00:09:20;20.34;50.91
25945;SHT31;13742;49.306;8.636;2022-07-06T00:10:20;20.26;51.20
25945;SHT31;13742;49.306;8.636;2022-07-06T00:11:20;20.23;51.42
25945;SHT31;13742;49.306;8.636;2022-07-06T00:12:20;20.20;51.51
25945;SHT31;13742;49.306;8.636;2022-07-06T00:13:20;20.16;51.58
25945;SHT31;13742;49.306;8.636;2022-07-06T00:14:20;20.24;51.47
25945;SHT31;13742;49.306;8.636;2022-07-06T00:15:21;20.23;51.47
25945;SHT31;13742;49.306;8.636;2022-07-06T00:16:20;20.27;51.40
25945;SHT31;13742;49.306;8.636;2022-07-06T00:17:20;20.33;51.39
25945;SHT31;13742;49.306;8.636;2022-07-06T00:18:20;20.28;51.45
25945;SHT31;13742;49.306;8.636;2022-07-06T00:19:20;20.31;51.46
25945;SHT31;13742;49.306;8.636;2022-07-06T00:20:20;20.33;51.48
25945;SHT31;13742;49.306;8.636;2022-07-06T00:21:21;20.36;51.42
25945;SHT31;13742;49.306;8.636;2022-07-06T00:22:20;20.38;51.36
25945;SHT31;13742;49.306;8.636;2022-07-06T00:23:20;20.41;51.53
25945;SHT31;13742;49.306;8.636;2022-07-06T00:24:21;20.43;51.35
25945;SHT31;13742;49.306;8.636;2022-07-06T00:25:20;20.43;51.31
25945;SHT31;13742;49.306;8.636;2022-07-06T00:26:20;20.48;51.43
25945;SHT31;13742;49.306;8.636;2022-07-06T00:27:20;20.40;51.59
25945;SHT31;13742;49.306;8.636;2022-07-06T00:28:20;20.28;51.93
25945;SHT31;13742;49.306;8.636;2022-07-06T00:29:20;20.26;52.07
25945;SHT31;13742;49.306;8.636;2022-07-06T00:30:20;20.10;52.56
25945;SHT31;13742;49.306;8.636;2022-07-06T00:31:20;20.17;52.43
25945;SHT31;13742;49.306;8.636;2022-07-06T00:32:20;20.24;52.29
25945;SHT31;13742;49.306;8.636;2022-07-06T00:33:20;20.20;52.45
25945;SHT31;13742;49.306;8.636;2022-07-06T00:34:20;20.19;52.52
25945;SHT31;13742;49.306;8.636;2022-07-06T00:35:20;20.12;52.56
25945;SHT31;13742;49.306;8.636;2022-07-06T00:36:20;20.07;52.82
25945;SHT31;13742;49.306;8.636;2022-07-06T00:37:20;20.00;53.17
25945;SHT31;13742;49.306;8.636;2022-07-06T00:38:20;19.96;53.26
25945;SHT31;13742;49.306;8.636;2022-07-06T00:39:21;19.95;53.25
25945;SHT31;13742;49.306;8.636;2022-07-06T00:40:20;19.95;53.38
25945;SHT31;13742;49.306;8.636;2022-07-06T00:41:20;19.86;53.64
25945;SHT31;13742;49.306;8.636;2022-07-06T00:42:21;19.95;53.61
25945;SHT31;13742;49.306;8.636;2022-07-06T00:43:20;19.85;53.82
25945;SHT31;13742;49.306;8.636;2022-07-06T00:44:20;19.90;53.68
25945;SHT31;13742;49.306;8.636;2022-07-06T00:45:20;19.90;53.64
25945;SHT31;13742;49.306;8.636;2022-07-06T00:46:22;19.80;54.02
25945;SHT31;13742;49.306;8.636;2022-07-06T00:47:20;19.78;54.13
25945;SHT31;13742;49.306;8.636;2022-07-06T00:48:20;19.85;53.96
25945;SHT31;13742;49.306;8.636;2022-07-06T00:49:25;19.85;54.06
25945;SHT31;13742;49.306;8.636;2022-07-06T00:50:23;19.79;54.38
25945;SHT31;13742;49.306;8.636;2022-07-06T00:51:22;19.70;54.57
25945;SHT31;13742;49.306;8.636;2022-07-06T00:52:20;19.65;54.87
25945;SHT31;13742;49.306;8.636;2022-07-06T00:53:20;19.68;54.70
25945;SHT31;13742;49.306;8.636;2022-07-06T00:54:20;19.65;54.82
25945;SHT31;13742;49.306;8.636;2022-07-06T00:55:22;19.64;54.91
25945;SHT31;13742;49.306;8.636;2022-07-06T00:56:20;19.54;55.19
25945;SHT31;13742;49.306;8.636;2022-07-06T00:57:20;19.57;55.17
25945;SHT31;13742;49.306;8.636;2022-07-06T00:58:20;19.48;55.37
25945;SHT31;13742;49.306;8.636;2022-07-06T00:59:20;19.45;55.47
25945;SHT31;13742;49.306;8.636;2022-07-06T01:00:24;19.45;55.60
25945;SHT31;13742;49.306;8.636;2022-07-06T01:01:20;19.48;55.44
25945;SHT31;13742;49.306;8.636;2022-07-06T01:02:22;19.42;55.75
25945;SHT31;13742;49.306;8.636;2022-07-06T01:03:20;19.41;55.82
25945;SHT31;13742;49.306;8.636;2022-07-06T01:04:20;19.37;56.02
25945;SHT31;13742;49.306;8.636;2022-07-06T01:05:20;19.34;56.04
25945;SHT31;13742;49.306;8.636;2022-07-06T01:06:20;19.45;55.82
25945;SHT31;13742;49.306;8.636;2022-07-06T01:07:20;19.45;55.80
25945;SHT31;13742;49.306;8.636;2022-07-06T01:08:20;19.51;55.63
25945;SHT31;13742;49.306;8.636;2022-07-06T01:09:20;19.45;55.87
25945;SHT31;13742;49.306;8.636;2022-07-06T01:10:21;19.44;55.82
25945;SHT31;13742;49.306;8.636;2022-07-06T01:11:20;19.51;55.60
25945;SHT31;13742;49.306;8.636;2022-07-06T01:12:20;19.54;55.64
25945;SHT31;13742;49.306;8.636;2022-07-06T01:13:20;19.31;56.35
25945;SHT31;13742;49.306;8.636;2022-07-06T01:14:20;19.34;56.42
25945;SHT31;13742;49.306;8.636;2022-07-06T01:15:22;19.30;56.53
25945;SHT31;13742;49.306;8.636;2022-07-06T01:16:20;19.33;56.41
25945;SHT31;13742;49.306;8.636;2022-07-06T01:17:20;19.27;56.54
25945;SHT31;13742;49.306;8.636;2022-07-06T01:18:20;19.28;56.51
25945;SHT31;13742;49.306;8.636;2022-07-06T01:19:20;19.38;56.21
25945;SHT31;13742;49.306;8.636;2022-07-06T01:20:21;19.34;56.51
25945;SHT31;13742;49.306;8.636;2022-07-06T01:21:20;19.18;56.99
25945;SHT31;13742;49.306;8.636;2022-07-06T01:22:20;19.17;57.15
25945;SHT31;13742;49.306;8.636;2022-07-06T01:23:20;19.33;56.84
25945;SHT31;13742;49.306;8.636;2022-07-06T01:24:20;19.33;56.63
25945;SHT31;13742;49.306;8.636;2022-07-06T01:25:20;19.30;56.90
25945;SHT31;13742;49.306;8.636;2022-07-06T01:26:20;19.21;57.02
25945;SHT31;13742;49.306;8.636;2022-07-06T01:27:20;19.08;57.45
25945;SHT31;13742;49.306;8.636;2022-07-06T01:28:20;19.06;57.54
25945;SHT31;13742;49.306;8.636;2022-07-06T01:29:20;19.08;57.65
25945;SHT31;13742;49.306;8.636;2022-07-06T01:30:20;19.10;57.34
25945;SHT31;13742;49.306;8.636;2022-07-06T01:31:23;19.11;57.47
25945;SHT31;13742;49.306;8.636;2022-07-06T01:32:20;19.15;57.32
25945;SHT31;13742;49.306;8.636;2022-07-06T01:33:20;19.10;57.69
25945;SHT31;13742;49.306;8.636;2022-07-06T01:34:19;18.97;57.97
25945;SHT31;13742;49.306;8.636;2022-07-06T01:35:20;19.00;57.92
25945;SHT31;13742;49.306;8.636;2022-07-06T01:36:21;18.91;58.12
25945;SHT31;13742;49.306;8.636;2022-07-06T01:37:19;19.01;57.91
25945;SHT31;13742;49.306;8.636;2022-07-06T01:38:19;18.98;57.99
25945;SHT31;13742;49.306;8.636;2022-07-06T01:39:20;18.91;58.22
25945;SHT31;13742;49.306;8.636;2022-07-06T01:40:19;18.89;58.39
25945;SHT31;13742;49.306;8.636;2022-07-06T01:41:20;18.87;58.31
25945;SHT31;13742;49.306;8.636;2022-07-06T01:42:19;18.90;58.35
25945;SHT31;13742;49.306;8.636;2022-07-06T01:43:20;18.82;58.66
25945;SHT31;13742;49.306;8.636;2022-07-06T01:44:19;18.77;58.76
25945;SHT31;13742;49.306;8.636;2022-07-06T01:45:20;18.66;59.04
25945;SHT31;13742;49.306;8.636;2022-07-06T01:46:20;18.63;59.18
25945;SHT31;13742;49.306;8.636;2022-07-06T01:47:20;18.73;59.02
25945;SHT31;13742;49.306;8.636;2022-07-06T01:48:19;18.72;58.98
25945;SHT31;13742;49.306;8.636;2022-07-06T01:49:20;18.77;58.63
25945;SHT31;13742;49.306;8.636;2022-07-06T01:50:20;18.72;58.94
25945;SHT31;13742;49.306;8.636;2022-07-06T01:51:20;18.73;59.16
25945;SHT31;13742;49.306;8.636;2022-07-06T01:52:20;18.76;58.93
25945;SHT31;13742;49.306;8.636;2022-07-06T01:53:20;18.72;59.10
25945;SHT31;13742;49.306;8.636;2022-07-06T01:54:19;18.70;59.13
25945;SHT31;13742;49.306;8.636;2022-07-06T01:55:20;18.68;59.25
25945;SHT31;13742;49.306;8.636;2022-07-06T01:56:20;18.77;58.86
25945;SHT31;13742;49.306;8.636;2022-07-06T01:57:20;18.75;59.06
25945;SHT31;13742;49.306;8.636;2022-07-06T01:58:19;18.76;59.01
25945;SHT31;13742;49.306;8.636;2022-07-06T01:59:20;18.77;58.96
25945;SHT31;13742;49.306;8.636;2022-07-06T02:00:20;18.84;58.64
25945;SHT31;13742;49.306;8.636;2022-07-06T02:01:20;18.89;58.53
25945;SHT31;13742;49.306;8.636;2022-07-06T02:02:19;18.93;58.50
25945;SHT31;13742;49.306;8.636;2022-07-06T02:03:20;18.91;58.55
25945;SHT31;13742;49.306;8.636;2022-07-06T02:04:20;18.84;58.76
25945;SHT31;13742;49.306;8.636;2022-07-06T02:05:20;18.83;58.91
25945;SHT31;13742;49.306;8.636;2022-07-06T02:06:19;18.83;58.75
25945;SHT31;13742;49.306;8.636;2022-07-06T02:07:19;18.86;58.79
25945;SHT31;13742;49.306;8.636;2022-07-06T02:08:19;18.90;58.60
25945;SHT31;13742;49.306;8.636;2022-07-06T02:09:19;18.91;58.69
25945;SHT31;13742;49.306;8.636;2022-07-06T02:10:20;18.82;59.07
25945;SHT31;13742;49.306;8.636;2022-07-06T02:11:20;18.77;59.08
25945;SHT31;13742;49.306;8.636;2022-07-06T02:12:20;18.84;58.78
25945;SHT31;13742;49.306;8.636;2022-07-06T02:13:20;18.77;59.17
25945;SHT31;13742;49.306;8.636;2022-07-06T02:14:20;18.80;59.15
25945;SHT31;13742;49.306;8.636;2022-07-06T02:15:19;18.66;59.52
25945;SHT31;13742;49.306;8.636;2022-07-06T02:16:20;18.72;59.31
25945;SHT31;13742;49.306;8.636;2022-07-06T02:17:19;18.79;59.15
25945;SHT31;13742;49.306;8.636;2022-07-06T02:18:20;18.73;59.25
25945;SHT31;13742;49.306;8.636;2022-07-06T02:19:20;18.60;59.74
25945;SHT31;13742;49.306;8.636;2022-07-06T02:20:19;18.52;59.85
25945;SHT31;13742;49.306;8.636;2022-07-06T02:21:20;18.51;60.05
25945;SHT31;13742;49.306;8.636;2022-07-06T02:22:19;18.45;60.36
25945;SHT31;13742;49.306;8.636;2022-07-06T02:23:20;18.41;60.42
25945;SHT31;13742;49.306;8.636;2022-07-06T02:24:20;18.31;60.79
25945;SHT31;13742;49.306;8.636;2022-07-06T02:25:19;18.29;60.83
25945;SHT31;13742;49.306;8.636;2022-07-06T02:26:19;18.24;60.98
25945;SHT31;13742;49.306;8.636;2022-07-06T02:27:19;18.28;60.86
25945;SHT31;13742;49.306;8.636;2022-07-06T02:28:20;18.28;60.95
25945;SHT31;13742;49.306;8.636;2022-07-06T02:29:20;18.38;60.44
25945;SHT31;13742;49.306;8.636;2022-07-06T02:30:20;18.32;60.83
25945;SHT31;13742;49.306;8.636;2022-07-06T02:31:19;18.32;60.91
25945;SHT31;13742;49.306;8.636;2022-07-06T02:32:19;18.42;60.27
25945;SHT31;13742;49.306;8.636;2022-07-06T02:33:19;18.48;60.17
25945;SHT31;13742;49.306;8.636;2022-07-06T02:34:20;18.41;60.54
25945;SHT31;13742;49.306;8.636;2022-07-06T02:35:19;18.41;60.47
25945;SHT31;13742;49.306;8.636;2022-07-06T02:36:19;18.45;60.49
25945;SHT31;13742;49.306;8.636;2022-07-06T02:37:19;18.18;61.26
25945;SHT31;13742;49.306;8.636;2022-07-06T02:38:19;18.18;61.16
25945;SHT31;13742;49.306;8.636;2022-07-06T02:39:19;18.14;61.52
25945;SHT31;13742;49.306;8.636;2022-07-06T02:40:20;18.14;61.45
25945;SHT31;13742;49.306;8.636;2022-07-06T02:41:19;18.12;61.46
25945;SHT31;13742;49.306;8.636;2022-07-06T02:42:19;18.11;61.64
25945;SHT31;13742;49.306;8.636;2022-07-06T02:43:19;17.98;62.13
25945;SHT31;13742;49.306;8.636;2022-07-06T02:44:19;18.00;62.16
25945;SHT31;13742;49.306;8.636;2022-07-06T02:45:19;18.00;62.04
25945;SHT31;13742;49.306;8.636;2022-07-06T02:46:19;18.05;61.97
25945;SHT31;13742;49.306;8.636;2022-07-06T02:47:19;18.12;61.59
25945;SHT31;13742;49.306;8.636;2022-07-06T02:48:21;18.09;61.74
25945;SHT31;13742;49.306;8.636;2022-07-06T02:49:19;18.11;61.72
25945;SHT31;13742;49.306;8.636;2022-07-06T02:50:19;18.09;61.75
25945;SHT31;13742;49.306;8.636;2022-07-06T02:51:19;18.19;61.43
25945;SHT31;13742;49.306;8.636;2022-07-06T02:52:20;18.08;61.84
25945;SHT31;13742;49.306;8.636;2022-07-06T02:53:19;18.11;61.58
25945;SHT31;13742;49.306;8.636;2022-07-06T02:54:19;18.18;61.22
25945;SHT31;13742;49.306;8.636;2022-07-06T02:55:19;18.12;61.73
25945;SHT31;13742;49.306;8.636;2022-07-06T02:56:19;18.05;61.97
25945;SHT31;13742;49.306;8.636;2022-07-06T02:57:20;18.11;61.60
25945;SHT31;13742;49.306;8.636;2022-07-06T02:58:19;18.21;61.17
25945;SHT31;13742;49.306;8.636;2022-07-06T02:59:20;18.27;61.27
25945;SHT31;13742;49.306;8.636;2022-07-06T03:00:20;18.09;61.82
25945;SHT31;13742;49.306;8.636;2022-07-06T03:01:20;17.91;62.30
25945;SHT31;13742;49.306;8.636;2022-07-06T03:02:19;17.86;62.55
25945;SHT31;13742;49.306;8.636;2022-07-06T03:03:19;17.94;62.13
25945;SHT31;13742;49.306;8.636;2022-07-06T03:04:19;17.88;62.39
25945;SHT31;13742;49.306;8.636;2022-07-06T03:05:20;18.00;61.88
25945;SHT31;13742;49.306;8.636;2022-07-06T03:06:19;18.01;62.00
25945;SHT31;13742;49.306;8.636;2022-07-06T03:07:19;18.05;61.49
25945;SHT31;13742;49.306;8.636;2022-07-06T03:08:19;18.12;61.53
25945;SHT31;13742;49.306;8.636;2022-07-06T03:09:20;18.08;61.70
25945;SHT31;13742;49.306;8.636;2022-07-06T03:10:19;18.01;61.94
25945;SHT31;13742;49.306;8.636;2022-07-06T03:11:19;17.98;61.99
25945;SHT31;13742;49.306;8.636;2022-07-06T03:12:19;18.00;62.03
25945;SHT31;13742;49.306;8.636;2022-07-06T03:13:19;17.87;62.36
25945;SHT31;13742;49.306;8.636;2022-07-06T03:14:20;17.87;62.33
25945;SHT31;13742;49.306;8.636;2022-07-06T03:15:20;17.69;62.94
25945;SHT31;13742;49.306;8.636;2022-07-06T03:16:20;17.63;63.00
25945;SHT31;13742;49.306;8.636;2022-07-06T03:17:21;17.57;63.39
25945;SHT31;13742;49.306;8.636;2022-07-06T03:18:19;17.66;63.11
25945;SHT31;13742;49.306;8.636;2022-07-06T03:19:19;17.72;63.02
25945;SHT31;13742;49.306;8.636;2022-07-06T03:20:19;17.80;62.59
25945;SHT31;13742;49.306;8.636;2022-07-06T03:21:19;17.81;62.71
25945;SHT31;13742;49.306;8.636;2022-07-06T03:22:19;17.79;62.71
25945;SHT31;13742;49.306;8.636;2022-07-06T03:23:19;17.59;63.27
25945;SHT31;13742;49.306;8.636;2022-07-06T03:24:19;17.65;63.03
25945;SHT31;13742;49.306;8.636;2022-07-06T03:25:20;17.60;63.36
25945;SHT31;13742;49.306;8.636;2022-07-06T03:26:19;17.66;63.11
25945;SHT31;13742;49.306;8.636;2022-07-06T03:27:19;17.62;63.24
25945;SHT31;13742;49.306;8.636;2022-07-06T03:28:19;17.59;63.35
25945;SHT31;13742;49.306;8.636;2022-07-06T03:29:20;17.49;63.82
25945;SHT31;13742;49.306;8.636;2022-07-06T03:30:19;17.59;63.14
25945;SHT31;13742;49.306;8.636;2022-07-06T03:31:19;17.54;63.51
25945;SHT31;13742;49.306;8.636;2022-07-06T03:32:19;17.56;63.26
25945;SHT31;13742;49.306;8.636;2022-07-06T03:33:19;17.50;63.47
25945;SHT31;13742;49.306;8.636;2022-07-06T03:34:19;17.54;63.49
25945;SHT31;13742;49.306;8.636;2022-07-06T03:35:19;17.36;63.97
25945;SHT31;13742;49.306;8.636;2022-07-06T03:36:19;17.43;63.82
25945;SHT31;13742;49.306;8.636;2022-07-06T03:37:19;17.49;63.87
25945;SHT31;13742;49.306;8.636;2022-07-06T03:38:19;17.48;63.59
25945;SHT31;13742;49.306;8.636;2022-07-06T03:39:19;17.56;63.45
25945;SHT31;13742;49.306;8.636;2022-07-06T03:40:19;17.65;63.22
25945;SHT31;13742;49.306;8.636;2022-07-06T03:41:19;17.57;63.43
25945;SHT31;13742;49.306;8.636;2022-07-06T03:42:19;17.50;63.57
25945;SHT31;13742;49.306;8.636;2022-07-06T03:43:20;17.40;64.05
25945;SHT31;13742;49.306;8.636;2022-07-06T03:44:19;17.38;63.92
25945;SHT31;13742;49.306;8.636;2022-07-06T03:45:19;17.36;63.93
25945;SHT31;13742;49.306;8.636;2022-07-06T03:46:19;17.35;64.13
25945;SHT31;13742;49.306;8.636;2022-07-06T03:47:19;17.26;64.11
25945;SHT31;13742;49.306;8.636;2022-07-06T03:48:19;17.26;64.32
25945;SHT31;13742;49.306;8.636;2022-07-06T03:49:19;17.21;64.48
25945;SHT31;13742;49.306;8.636;2022-07-06T03:50:19;17.21;64.57
25945;SHT31;13742;49.306;8.636;2022-07-06T03:51:19;17.19;64.48
25945;SHT31;13742;49.306;8.636;2022-07-06T03:52:19;17.19;64.54
25945;SHT31;13742;49.306;8.636;2022-07-06T03:53:19;17.22;64.34
25945;SHT31;13742;49.306;8.636;2022-07-06T03:54:19;17.28;64.31
25945;SHT31;13742;49.306;8.636;2022-07-06T03:55:19;17.29;64.16
25945;SHT31;13742;49.306;8.636;2022-07-06T03:56:25;17.22;64.17
25945;SHT31;13742;49.306;8.636;2022-07-06T03:57:21;17.30;64.33
25945;SHT31;13742;49.306;8.636;2022-07-06T03:58:19;17.35;64.07
25945;SHT31;13742;49.306;8.636;2022-07-06T03:59:19;17.29;64.05
25945;SHT31;13742;49.306;8.636;2022-07-06T04:00:19;17.23;64.18
25945;SHT31;13742;49.306;8.636;2022-07-06T04:01:20;17.21;64.33
25945;SHT31;13742;49.306;8.636;2022-07-06T04:02:19;17.18;64.32
25945;SHT31;13742;49.306;8.636;2022-07-06T04:03:19;17.29;64.20
25945;SHT31;13742;49.306;8.636;2022-07-06T04:04:20;17.38;63.94
25945;SHT31;13742;49.306;8.636;2022-07-06T04:05:21;17.23;64.06
25945;SHT31;13742;49.306;8.636;2022-07-06T04:06:20;17.25;63.88
25945;SHT31;13742;49.306;8.636;2022-07-06T04:07:20;17.25;63.88
25945;SHT31;13742;49.306;8.636;2022-07-06T04:08:19;17.26;63.95
25945;SHT31;13742;49.306;8.636;2022-07-06T04:09:19;17.35;63.68
25945;SHT31;13742;49.306;8.636;2022-07-06T04:10:19;17.29;63.70
25945;SHT31;13742;49.306;8.636;2022-07-06T04:11:19;17.38;63.38
25945;SHT31;13742;49.306;8.636;2022-07-06T04:12:19;17.48;63.22
25945;SHT31;13742;49.306;8.636;2022-07-06T04:13:19;17.45;63.12
25945;SHT31;13742;49.306;8.636;2022-07-06T04:14:19;17.43;63.38
25945;SHT31;13742;49.306;8.636;2022-07-06T04:15:19;17.36;63.48
25945;SHT31;13742;49.306;8.636;2022-07-06T04:16:20;17.33;63.38
25945;SHT31;13742;49.306;8.636;2022-07-06T04:17:24;17.36;63.31
25945;SHT31;13742;49.306;8.636;2022-07-06T04:18:20;17.30;63.78
25945;SHT31;13742;49.306;8.636;2022-07-06T04:19:19;17.28;63.68
25945;SHT31;13742;49.306;8.636;2022-07-06T04:20:20;17.33;63.41
25945;SHT31;13742;49.306;8.636;2022-07-06T04:21:19;17.40;63.53
25945;SHT31;13742;49.306;8.636;2022-07-06T04:22:19;17.39;63.57
25945;SHT31;13742;49.306;8.636;2022-07-06T04:23:19;17.40;63.21
25945;SHT31;13742;49.306;8.636;2022-07-06T04:24:19;17.40;63.29
25945;SHT31;13742;49.306;8.636;2022-07-06T04:25:19;17.45;63.64
25945;SHT31;13742;49.306;8.636;2022-07-06T04:26:19;17.43;63.16
25945;SHT31;13742;49.306;8.636;2022-07-06T04:27:19;17.42;63.31
25945;SHT31;13742;49.306;8.636;2022-07-06T04:28:19;17.40;63.47
25945;SHT31;13742;49.306;8.636;2022-07-06T04:29:19;17.36;63.29
25945;SHT31;13742;49.306;8.636;2022-07-06T04:30:19;17.18;63.56
25945;SHT31;13742;49.306;8.636;2022-07-06T04:31:20;17.26;63.68
25945;SHT31;13742;49.306;8.636;2022-07-06T04:32:19;17.17;63.61
25945;SHT31;13742;49.306;8.636;2022-07-06T04:33:19;17.07;63.80
25945;SHT31;13742;49.306;8.636;2022-07-06T04:34:20;17.09;64.04
25945;SHT31;13742;49.306;8.636;2022-07-06T04:35:19;17.11;64.07
25945;SHT31;13742;49.306;8.636;2022-07-06T04:36:19;17.14;63.89
25945;SHT31;13742;49.306;8.636;2022-07-06T04:37:19;17.17;63.89
25945;SHT31;13742;49.306;8.636;2022-07-06T04:38:19;17.15;63.81
25945;SHT31;13742;49.306;8.636;2022-07-06T04:39:19;17.19;63.72
25945;SHT31;13742;49.306;8.636;2022-07-06T04:40:20;17.12;63.77
25945;SHT31;13742;49.306;8.636;2022-07-06T04:41:19;17.18;63.89
25945;SHT31;13742;49.306;8.636;2022-07-06T04:42:19;17.14;64.08
25945;SHT31;13742;49.306;8.636;2022-07-06T04:43:19;17.17;63.98
25945;SHT31;13742;49.306;8.636;2022-07-06T04:44:19;17.23;63.81
25945;SHT31;13742;49.306;8.636;2022-07-06T04:45:19;17.26;63.77
25945;SHT31;13742;49.306;8.636;2022-07-06T04:46:19;17.15;63.81
25945;SHT31;13742;49.306;8.636;2022-07-06T04:47:19;17.23;63.78
25945;SHT31;13742;49.306;8.636;2022-07-06T04:48:20;17.23;63.68
25945;SHT31;13742;49.306;8.636;2022-07-06T04:49:19;17.28;63.55
25945;SHT31;13742;49.306;8.636;2022-07-06T04:50:19;17.25;63.85
25945;SHT31;13742;49.306;8.636;2022-07-06T04:51:19;17.21;63.83
25945;SHT31;13742;49.306;8.636;2022-07-06T04:52:19;17.30;63.88
25945;SHT31;13742;49.306;8.636;2022-07-06T04:53:19;17.26;63.87
25945;SHT31;13742;49.306;8.636;2022-07-06T04:54:19;17.35;63.76
25945;SHT31;13742;49.306;8.636;2022-07-06T04:55:19;17.33;63.79
25945;SHT31;13742;49.306;8.636;2022-07-06T04:56:19;17.42;63.51
25945;SHT31;13742;49.306;8.636;2022-07-06T04:57:19;17.36;63.52
25945;SHT31;13742;49.306;8.636;2022-07-06T04:58:19;17.33;63.51
25945;SHT31;13742;49.306;8.636;2022-07-06T04:59:19;17.28;63.94
25945;SHT31;13742;49.306;8.636;2022-07-06T05:00:19;17.25;63.83
25945;SHT31;13742;49.306;8.636;2022-07-06T05:01:19;17.36;63.50
25945;SHT31;13742;49.306;8.636;2022-07-06T05:02:19;17.32;63.56
25945;SHT31;13742;49.306;8.636;2022-07-06T05:03:19;17.12;63.92
25945;SHT31;13742;49.306;8.636;2022-07-06T05:04:19;17.11;64.04
25945;SHT31;13742;49.306;8.636;2022-07-06T05:05:19;17.14;63.95
25945;SHT31;13742;49.306;8.636;2022-07-06T05:06:20;17.07;63.90
25945;SHT31;13742;49.306;8.636;2022-07-06T05:07:19;17.14;64.40
25945;SHT31;13742;49.306;8.636;2022-07-06T05:08:19;17.18;63.78
25945;SHT31;13742;49.306;8.636;2022-07-06T05:09:19;17.09;63.86
25945;SHT31;13742;49.306;8.636;2022-07-06T05:10:19;17.19;64.14
25945;SHT31;13742;49.306;8.636;2022-07-06T05:11:20;17.15;63.85
25945;SHT31;13742;49.306;8.636;2022-07-06T05:12:19;17.15;63.82
25945;SHT31;13742;49.306;8.636;2022-07-06T05:13:19;17.25;63.57
25945;SHT31;13742;49.306;8.636;2022-07-06T05:14:20;17.29;63.25
25945;SHT31;13742;49.306;8.636;2022-07-06T05:15:19;17.23;63.48
25945;SHT31;13742;49.306;8.636;2022-07-06T05:16:20;17.28;63.41
25945;SHT31;13742;49.306;8.636;2022-07-06T05:17:19;17.39;63.52
25945;SHT31;13742;49.306;8.636;2022-07-06T05:18:19;17.38;63.39
25945;SHT31;13742;49.306;8.636;2022-07-06T05:19:19;17.40;63.05
25945;SHT31;13742;49.306;8.636;2022-07-06T05:20:19;17.45;62.96
25945;SHT31;13742;49.306;8.636;2022-07-06T05:21:19;17.48;63.03
25945;SHT31;13742;49.306;8.636;2022-07-06T05:22:19;17.43;63.05
25945;SHT31;13742;49.306;8.636;2022-07-06T05:23:19;17.49;63.05
25945;SHT31;13742;49.306;8.636;2022-07-06T05:24:19;17.53;62.98
25945;SHT31;13742;49.306;8.636;2022-07-06T05:25:20;17.56;62.91
25945;SHT31;13742;49.306;8.636;2022-07-06T05:26:20;17.54;62.63
25945;SHT31;13742;49.306;8.636;2022-07-06T05:27:19;17.63;62.75
25945;SHT31;13742;49.306;8.636;2022-07-06T05:28:19;17.66;62.31
25945;SHT31;13742;49.306;8.636;2022-07-06T05:29:19;17.63;62.19
25945;SHT31;13742;49.306;8.636;2022-07-06T05:30:20;17.66;62.44
25945;SHT31;13742;49.306;8.636;2022-07-06T05:31:20;17.66;62.37
25945;SHT31;13742;49.306;8.636;2022-07-06T05:32:19;17.56;62.16
25945;SHT31;13742;49.306;8.636;2022-07-06T05:33:19;17.57;62.29
25945;SHT31;13742;49.306;8.636;2022-07-06T05:34:19;17.57;62.15
25945;SHT31;13742;49.306;8.636;2022-07-06T05:35:19;17.59;62.01
25945;SHT31;13742;49.306;8.636;2022-07-06T05:36:19;17.56;62.29
25945;SHT31;13742;49.306;8.636;2022-07-06T05:37:19;17.52;62.08
25945;SHT31;13742;49.306;8.636;2022-07-06T05:38:20;17.49;62.30
25945;SHT31;13742;49.306;8.636;2022-07-06T05:39:21;17.48;62.11
25945;SHT31;13742;49.306;8.636;2022-07-06T05:40:19;17.45;62.29
25945;SHT31;13742;49.306;8.636;2022-07-06T05:41:19;17.50;62.41
25945;SHT31;13742;49.306;8.636;2022-07-06T05:42:19;17.50;62.19
25945;SHT31;13742;49.306;8.636;2022-07-06T05:43:19;17.46;62.62
25945;SHT31;13742;49.306;8.636;2022-07-06T05:44:19;17.42;62.10
25945;SHT31;13742;49.306;8.636;2022-07-06T05:45:19;17.45;62.35
25945;SHT31;13742;49.306;8.636;2022-07-06T05:46:19;17.45;62.29
25945;SHT31;13742;49.306;8.636;2022-07-06T05:47:24;17.46;62.38
25945;SHT31;13742;49.306;8.636;2022-07-06T05:48:24;17.40;62.35
25945;SHT31;13742;49.306;8.636;2022-07-06T05:49:24;17.43;62.35
25945;SHT31;13742;49.306;8.636;2022-07-06T05:50:19;17.43;62.38
25945;SHT31;13742;49.306;8.636;2022-07-06T05:51:19;17.46;62.37
25945;SHT31;13742;49.306;8.636;2022-07-06T05:52:19;17.42;62.38
25945;SHT31;13742;49.306;8.636;2022-07-06T05:53:19;17.49;62.33
25945;SHT31;13742;49.306;8.636;2022-07-06T05:54:19;17.50;62.29
25945;SHT31;13742;49.306;8.636;2022-07-06T05:55:19;17.50;62.07
25945;SHT31;13742;49.306;8.636;2022-07-06T05:56:19;17.40;62.30
25945;SHT31;13742;49.306;8.636;2022-07-06T05:57:19;17.48;62.40
25945;SHT31;13742;49.306;8.636;2022-07-06T05:58:19;17.43;62.72
25945;SHT31;13742;49.306;8.636;2022-07-06T05:59:19;17.45;62.42
25945;SHT31;13742;49.306;8.636;2022-07-06T06:00:20;17.43;62.50
25945;SHT31;13742;49.306;8.636;2022-07-06T06:01:19;17.45;62.39
25945;SHT31;13742;49.306;8.636;2022-07-06T06:02:19;17.45;62.48
25945;SHT31;13742;49.306;8.636;2022-07-06T06:03:19;17.39;62.48
25945;SHT31;13742;49.306;8.636;2022-07-06T06:04:19;17.30;62.60
25945;SHT31;13742;49.306;8.636;2022-07-06T06:05:20;17.30;62.91
25945;SHT31;13742;49.306;8.636;2022-07-06T06:06:19;17.33;62.88
25945;SHT31;13742;49.306;8.636;2022-07-06T06:07:19;17.39;62.52
25945;SHT31;13742;49.306;8.636;2022-07-06T06:08:20;17.36;62.85
25945;SHT31;13742;49.306;8.636;2022-07-06T06:09:19;17.23;62.93
25945;SHT31;13742;49.306;8.636;2022-07-06T06:10:20;17.38;63.13
25945;SHT31;13742;49.306;8.636;2022-07-06T06:11:20;17.42;62.76
25945;SHT31;13742;49.306;8.636;2022-07-06T06:12:19;17.48;62.71
25945;SHT31;13742;49.306;8.636;2022-07-06T06:13:19;17.48;62.97
25945;SHT31;13742;49.306;8.636;2022-07-06T06:14:19;17.56;62.55
25945;SHT31;13742;49.306;8.636;2022-07-06T06:15:20;17.63;62.90
25945;SHT31;13742;49.306;8.636;2022-07-06T06:16:19;17.49;62.63
25945;SHT31;13742;49.306;8.636;2022-07-06T06:17:19;17.57;62.63
25945;SHT31;13742;49.306;8.636;2022-07-06T06:18:19;17.56;62.41